createdAt,value
2019-04-20T00:00:02.716Z,99.90
2019-04-20T00:02:33.815Z,99.90
2019-04-20T00:05:03.430Z,99.90
2019-04-20T00:07:36.276Z,99.90
2019-04-20T00:10:13.071Z,99.90
2019-04-20T00:12:54.510Z,99.90
2019-04-20T00:15:07.408Z,99.90
2019-04-20T00:17:40.190Z,99.90
2019-04-20T00:20:14.281Z,99.90
2019-04-20T00:22:49.336Z,99.90
2019-04-20T00:25:24.127Z,99.90
2019-04-20T00:28:19.492Z,99.90
2019-04-20T00:30:53.397Z,99.90
2019-04-20T00:33:17.023Z,99.90
2019-04-20T00:35:34.230Z,99.90
2019-04-20T00:38:03.399Z,99.90
2019-04-20T00:40:32.705Z,99.90
2019-04-20T00:43:02.957Z,99.90
2019-04-20T00:45:35.240Z,99.90
2019-04-20T00:48:06.777Z,99.90
2019-04-20T00:50:48.856Z,99.90
2019-04-20T00:53:13.950Z,99.90
2019-04-20T00:55:34.121Z,99.90
2019-04-20T00:58:14.764Z,99.90
2019-04-20T01:01:02.729Z,99.90
2019-04-20T01:03:23.232Z,99.90
2019-04-20T01:05:58.529Z,99.90
2019-04-20T01:08:25.495Z,99.90
2019-04-20T01:10:57.670Z,99.90
2019-04-20T01:13:26.736Z,99.90
2019-04-20T01:16:03.278Z,99.90
2019-04-20T01:18:26.211Z,99.90
2019-04-20T01:20:59.101Z,99.90
2019-04-20T01:23:34.602Z,99.90
2019-04-20T01:26:04.067Z,99.90
2019-04-20T01:28:42.567Z,99.90
2019-04-20T01:31:09.810Z,99.90
2019-04-20T01:33:41.260Z,99.90
2019-04-20T01:36:21.576Z,99.90
2019-04-20T01:38:44.762Z,99.90
2019-04-20T01:41:01.386Z,99.90
2019-04-20T01:43:31.157Z,99.90
2019-04-20T01:46:07.658Z,99.90
2019-04-20T01:48:35.106Z,99.90
2019-04-20T01:51:09.288Z,99.90
2019-04-20T01:53:51.362Z,99.90
2019-04-20T01:56:18.140Z,99.90
2019-04-20T01:58:59.786Z,99.90
2019-04-20T02:01:23.054Z,99.90
2019-04-20T02:03:55.050Z,99.90
2019-04-20T02:06:25.676Z,99.90
2019-04-20T02:08:59.339Z,99.90
2019-04-20T02:11:29.638Z,99.90
2019-04-20T02:14:00.433Z,99.90
2019-04-20T02:16:33.594Z,99.90
2019-04-20T02:19:13.584Z,99.90
2019-04-20T02:21:42.403Z,99.90
2019-04-20T02:24:02.317Z,99.90
2019-04-20T02:26:28.221Z,99.90
2019-04-20T02:29:35.065Z,99.90
2019-04-20T02:34:47.693Z,99.90
2019-04-20T02:42:08.801Z,99.90
2019-04-20T02:44:41.935Z,99.90
2019-04-20T02:47:16.549Z,99.90
2019-04-20T02:52:28.664Z,99.90
2019-04-20T02:54:42.855Z,99.90
2019-04-20T02:57:12.517Z,99.90
2019-04-20T02:59:58.824Z,99.90
2019-04-20T03:02:01.397Z,99.90
2019-04-20T03:04:23.338Z,99.90
2019-04-20T03:06:59.429Z,99.90
2019-04-20T03:09:36.844Z,99.90
2019-04-20T03:12:10.627Z,99.90
2019-04-20T03:14:30.380Z,99.90
2019-04-20T03:17:09.900Z,99.90
2019-04-20T03:19:28.408Z,99.90
2019-04-20T03:22:09.105Z,99.90
2019-04-20T03:24:44.329Z,99.90
2019-04-20T03:27:07.793Z,99.90
2019-04-20T03:29:50.862Z,99.90
2019-04-20T03:35:17.421Z,99.90
2019-04-20T03:39:47.688Z,99.90
2019-04-20T03:42:05.260Z,99.90
2019-04-20T03:44:35.964Z,99.90
2019-04-20T03:47:08.793Z,99.90
2019-04-20T03:50:02.696Z,99.90
2019-04-20T03:52:27.763Z,99.90
2019-04-20T03:54:52.232Z,99.90
2019-04-20T03:57:34.397Z,99.90
2019-04-20T04:00:04.637Z,99.90
2019-04-20T04:02:54.585Z,99.90
2019-04-20T04:05:17.650Z,99.90
2019-04-20T04:07:40.428Z,99.90
2019-04-20T04:10:23.185Z,99.90
2019-04-20T04:13:14.814Z,99.90
2019-04-20T04:15:50.136Z,99.90
2019-04-20T04:18:25.445Z,99.90
2019-04-20T04:20:56.817Z,99.90
2019-04-20T04:23:33.881Z,99.90
2019-04-20T04:26:12.629Z,99.90
2019-04-20T04:28:37.375Z,99.90
2019-04-20T04:31:08.211Z,99.90
2019-04-20T04:33:53.351Z,99.90
2019-04-20T04:36:04.849Z,99.90
2019-04-20T04:38:42.377Z,99.90
2019-04-20T04:43:40.157Z,99.90
2019-04-20T04:45:55.529Z,99.90
2019-04-20T04:48:29.905Z,99.90
2019-04-20T04:51:01.260Z,99.90
2019-04-20T04:53:40.833Z,99.90
2019-04-20T04:56:03.147Z,99.90
2019-04-20T04:58:27.758Z,99.90
2019-04-20T05:01:04.532Z,99.90
2019-04-20T05:03:44.887Z,99.90
2019-04-20T05:06:20.986Z,99.90
2019-04-20T05:08:37.763Z,99.90
2019-04-20T05:11:02.600Z,99.90
2019-04-20T05:13:38.081Z,99.90
2019-04-20T05:16:16.869Z,99.90
2019-04-20T05:18:57.672Z,99.90
2019-04-20T05:21:25.356Z,99.90
2019-04-20T05:23:53.475Z,99.90
2019-04-20T05:26:36.113Z,99.90
2019-04-20T05:28:59.417Z,99.90
2019-04-20T05:31:23.572Z,99.90
2019-04-20T05:34:14.349Z,99.90
2019-04-20T05:36:42.751Z,99.90
2019-04-20T05:41:44.093Z,99.90
2019-04-20T05:44:11.266Z,99.90
2019-04-20T05:46:49.919Z,99.90
2019-04-20T05:49:18.930Z,99.90
2019-04-20T05:51:45.055Z,99.90
2019-04-20T05:54:19.360Z,99.90
2019-04-20T05:56:47.863Z,99.90
2019-04-20T05:59:16.172Z,99.90
2019-04-20T06:01:53.251Z,99.90
2019-04-20T06:04:30.054Z,99.90
2019-04-20T06:06:50.727Z,99.90
2019-04-20T06:09:22.638Z,99.90
2019-04-20T06:12:05.679Z,99.90
2019-04-20T06:14:25.675Z,99.90
2019-04-20T06:17:14.020Z,99.90
2019-04-20T06:19:42.196Z,99.90
2019-04-20T06:22:21.752Z,99.90
2019-04-20T06:24:57.137Z,99.90
2019-04-20T06:27:16.451Z,99.90
2019-04-20T06:29:45.831Z,99.90
2019-04-20T06:32:23.418Z,99.90
2019-04-20T06:34:46.538Z,99.90
2019-04-20T06:37:21.399Z,99.90
2019-04-20T06:40:22.151Z,99.90
2019-04-20T06:42:31.841Z,99.90
2019-04-20T06:44:44.061Z,99.90
2019-04-20T06:47:17.606Z,99.90
2019-04-20T06:49:48.674Z,99.90
2019-04-20T06:55:05.146Z,99.90
2019-04-20T06:57:43.484Z,99.90
2019-04-20T07:00:14.689Z,99.90
2019-04-20T07:02:41.206Z,99.90
2019-04-20T07:05:12.797Z,99.90
2019-04-20T07:07:45.482Z,99.90
2019-04-20T07:10:18.253Z,99.90
2019-04-20T07:12:39.903Z,98.60
2019-04-20T07:15:00.108Z,98.40
2019-04-20T07:17:55.006Z,96.40
2019-04-20T07:20:18.449Z,95.30
2019-04-20T07:22:55.619Z,93.90
2019-04-20T07:25:26.726Z,92.50
2019-04-20T07:27:53.704Z,90.60
2019-04-20T07:30:28.605Z,88.40
2019-04-20T07:32:59.725Z,83.10
2019-04-20T07:35:26.341Z,81.80
2019-04-20T07:40:24.395Z,73.80
2019-04-20T07:42:55.257Z,71.60
2019-04-20T07:45:29.538Z,65.60
2019-04-20T07:48:09.324Z,59.00
2019-04-20T07:50:29.622Z,58.30
2019-04-20T07:52:58.637Z,53.70
2019-04-20T07:55:47.796Z,52.60
2019-04-20T07:57:58.038Z,49.30
2019-04-20T08:00:48.620Z,45.90
2019-04-20T08:03:33.805Z,44.30
2019-04-20T08:05:52.668Z,42.70
2019-04-20T08:08:28.368Z,43.00
2019-04-20T08:11:05.916Z,35.80
2019-04-20T08:13:42.195Z,38.00
2019-04-20T08:16:06.594Z,38.70
2019-04-20T08:18:41.254Z,34.60
2019-04-20T08:21:13.011Z,35.70
2019-04-20T08:23:33.589Z,32.60
2019-04-20T08:25:58.403Z,32.10
2019-04-20T08:28:31.787Z,32.60
2019-04-20T08:31:09.099Z,35.30
2019-04-20T08:34:04.480Z,29.30
2019-04-20T08:36:31.553Z,33.60
2019-04-20T08:39:16.612Z,32.50
2019-04-20T08:41:25.119Z,31.00
2019-04-20T08:44:04.110Z,30.60
2019-04-20T08:46:34.513Z,32.20
2019-04-20T08:49:03.017Z,33.10
2019-04-20T08:51:33.250Z,29.50
2019-04-20T08:53:57.054Z,31.30
2019-04-20T08:56:25.917Z,30.70
2019-04-20T08:58:41.793Z,29.90
2019-04-20T09:01:14.355Z,29.90
2019-04-20T09:03:51.552Z,28.90
2019-04-20T09:06:30.981Z,29.40
2019-04-20T09:08:53.670Z,27.70
2019-04-20T09:11:31.079Z,28.60
2019-04-20T09:13:50.336Z,28.40
2019-04-20T09:16:15.341Z,28.80
2019-04-20T09:18:54.712Z,27.80
2019-04-20T09:21:27.128Z,27.20
2019-04-20T09:24:10.105Z,28.60
2019-04-20T09:26:37.391Z,28.30
2019-04-20T09:29:07.293Z,29.60
2019-04-20T09:31:36.884Z,29.10
2019-04-20T09:34:13.352Z,27.70
2019-04-20T09:36:38.609Z,29.20
2019-04-20T09:39:11.420Z,28.00
2019-04-20T09:42:03.783Z,27.10
2019-04-20T09:44:20.022Z,27.60
2019-04-20T09:46:54.212Z,26.20
2019-04-20T09:49:33.134Z,26.30
2019-04-20T09:52:06.565Z,26.80
2019-04-20T09:54:39.981Z,25.80
2019-04-20T09:57:09.371Z,25.30
2019-04-20T09:59:39.949Z,25.40
2019-04-20T10:02:04.158Z,25.50
2019-04-20T10:04:23.942Z,25.70
2019-04-20T10:06:53.006Z,26.20
2019-04-20T10:09:28.029Z,26.00
2019-04-20T10:11:53.195Z,25.80
2019-04-20T10:14:22.605Z,27.10
2019-04-20T10:16:51.877Z,24.90
2019-04-20T10:19:26.565Z,24.50
2019-04-20T10:21:52.749Z,26.90
2019-04-20T10:24:21.959Z,24.50
2019-04-20T10:26:50.879Z,24.10
2019-04-20T10:29:19.742Z,24.20
2019-04-20T10:31:54.592Z,24.30
2019-04-20T10:34:22.088Z,24.10
2019-04-20T10:36:51.493Z,24.50
2019-04-20T10:39:22.500Z,23.30
2019-04-20T10:41:56.222Z,23.50
2019-04-20T10:44:23.056Z,24.10
2019-04-20T10:46:53.272Z,23.80
2019-04-20T10:49:22.791Z,23.70
2019-04-20T10:51:51.845Z,24.30
2019-04-20T10:54:20.718Z,23.30
2019-04-20T10:56:49.772Z,24.10
2019-04-20T10:59:19.370Z,23.50
2019-04-20T11:01:49.656Z,23.60
2019-04-20T11:04:18.896Z,23.40
2019-04-20T11:06:47.827Z,24.20
2019-04-20T11:09:16.682Z,24.00
2019-04-20T11:11:46.138Z,23.00
2019-04-20T11:14:22.848Z,22.90
2019-04-20T11:16:46.683Z,23.40
2019-04-20T11:19:15.773Z,24.00
2019-04-20T11:21:46.192Z,22.40
2019-04-20T11:24:16.382Z,22.80
2019-04-20T11:26:46.814Z,23.70
2019-04-20T11:29:16.137Z,23.70
2019-04-20T11:31:50.598Z,24.20
2019-04-20T11:34:23.543Z,24.10
2019-04-20T11:36:46.274Z,22.70
2019-04-20T11:39:15.176Z,23.40
2019-04-20T11:41:45.338Z,22.70
2019-04-20T11:44:15.702Z,22.90
2019-04-20T11:46:44.974Z,21.70
2019-04-20T11:49:15.349Z,20.90
2019-04-20T11:51:45.583Z,21.50
2019-04-20T11:54:15.062Z,22.00
2019-04-20T11:56:47.177Z,22.00
2019-04-20T11:59:14.845Z,21.80
2019-04-20T12:01:51.931Z,21.80
2019-04-20T12:04:30.369Z,21.30
2019-04-20T12:06:48.705Z,21.50
2019-04-20T12:09:18.990Z,21.00
2019-04-20T12:12:04.123Z,20.30
2019-04-20T12:14:18.838Z,20.90
2019-04-20T12:16:47.897Z,20.20
2019-04-20T12:19:16.805Z,20.90
2019-04-20T12:21:45.764Z,20.10
2019-04-20T12:24:14.675Z,20.30
2019-04-20T12:26:44.756Z,20.60
2019-04-20T12:29:14.055Z,20.20
2019-04-20T12:31:51.089Z,20.30
2019-04-20T12:34:16.030Z,19.90
2019-04-20T12:36:45.133Z,20.70
2019-04-20T12:39:15.068Z,21.60
2019-04-20T12:41:50.430Z,21.10
2019-04-20T12:44:14.615Z,21.10
2019-04-20T12:46:43.753Z,21.40
2019-04-20T12:49:13.689Z,22.40
2019-04-20T12:51:50.610Z,21.80
2019-04-20T12:54:14.412Z,21.50
2019-04-20T12:56:44.676Z,21.90
2019-04-20T12:59:13.870Z,21.10
2019-04-20T13:01:43.747Z,20.30
2019-04-20T13:04:14.278Z,20.20
2019-04-20T13:06:44.761Z,19.90
2019-04-20T13:09:14.614Z,20.00
2019-04-20T13:12:05.313Z,19.90
2019-04-20T13:15:08.527Z,19.70
2019-04-20T13:17:37.975Z,20.00
2019-04-20T13:20:08.042Z,20.00
2019-04-20T13:22:37.092Z,19.40
2019-04-20T13:25:07.302Z,21.70
2019-04-20T13:27:36.715Z,19.80
2019-04-20T13:30:11.109Z,20.10
2019-04-20T13:32:41.431Z,19.10
2019-04-20T13:35:12.072Z,19.40
2019-04-20T13:37:42.326Z,19.50
2019-04-20T13:40:12.010Z,19.60
2019-04-20T13:42:41.474Z,19.50
2019-04-20T13:45:10.991Z,20.00
2019-04-20T13:47:41.040Z,18.00
2019-04-20T13:50:12.543Z,18.50
2019-04-20T13:52:41.470Z,18.50
2019-04-20T13:55:12.752Z,18.80
2019-04-20T13:57:47.139Z,17.50
2019-04-20T14:00:24.290Z,18.00
2019-04-20T14:03:04.823Z,18.00
2019-04-20T14:05:35.037Z,17.50
2019-04-20T14:08:07.460Z,17.40
2019-04-20T14:10:37.650Z,17.40
2019-04-20T14:13:12.098Z,17.40
2019-04-20T14:15:37.432Z,17.30
2019-04-20T14:18:06.968Z,17.30
2019-04-20T14:20:36.281Z,17.60
2019-04-20T14:23:05.329Z,16.50
2019-04-20T14:25:34.390Z,17.20
2019-04-20T14:28:03.201Z,17.30
2019-04-20T14:30:33.063Z,17.80
2019-04-20T14:33:03.029Z,17.80
2019-04-20T14:35:32.661Z,17.20
2019-04-20T14:38:01.717Z,17.50
2019-04-20T14:40:32.386Z,17.30
2019-04-20T14:43:01.742Z,16.90
2019-04-20T14:45:32.150Z,16.40
2019-04-20T14:48:01.712Z,16.40
2019-04-20T14:50:31.744Z,17.10
2019-04-20T14:53:01.851Z,16.50
2019-04-20T14:55:31.395Z,16.10
2019-04-20T14:58:03.620Z,16.10
2019-04-20T15:00:56.600Z,15.60
2019-04-20T15:03:28.346Z,15.90
2019-04-20T15:06:00.166Z,16.50
2019-04-20T15:08:30.356Z,16.00
2019-04-20T15:11:00.894Z,15.70
2019-04-20T15:13:30.815Z,15.90
2019-04-20T15:15:59.890Z,16.20
2019-04-20T15:18:31.425Z,16.30
2019-04-20T15:21:17.998Z,16.50
2019-04-20T15:23:47.915Z,17.10
2019-04-20T15:26:18.315Z,16.50
2019-04-20T15:28:48.327Z,16.50
2019-04-20T15:31:18.392Z,15.70
2019-04-20T15:33:48.748Z,16.90
2019-04-20T15:36:18.013Z,16.20
2019-04-20T15:38:47.257Z,16.30
2019-04-20T15:41:18.550Z,17.00
2019-04-20T15:43:48.992Z,17.00
2019-04-20T15:46:19.397Z,17.60
2019-04-20T15:48:48.479Z,18.40
2019-04-20T15:51:17.485Z,19.80
2019-04-20T15:53:47.360Z,20.40
2019-04-20T15:56:16.653Z,21.00
2019-04-20T15:58:46.136Z,21.10
2019-04-20T16:01:16.377Z,21.90
2019-04-20T16:03:47.627Z,21.90
2019-04-20T16:06:17.052Z,23.40
2019-04-20T16:08:48.248Z,23.50
2019-04-20T16:11:17.460Z,23.30
2019-04-20T16:13:50.504Z,24.30
2019-04-20T16:16:17.014Z,25.00
2019-04-20T16:18:46.628Z,25.00
2019-04-20T16:21:20.938Z,26.00
2019-04-20T16:23:50.786Z,26.20
2019-04-20T16:26:21.784Z,27.70
2019-04-20T16:28:50.901Z,28.00
2019-04-20T16:31:20.600Z,28.50
2019-04-20T16:33:50.583Z,28.70
2019-04-20T16:36:20.631Z,30.80
2019-04-20T16:38:50.995Z,31.30
2019-04-20T16:41:20.241Z,31.90
2019-04-20T16:43:49.991Z,33.40
2019-04-20T16:46:23.515Z,33.90
2019-04-20T16:48:50.226Z,34.60
2019-04-20T16:51:19.098Z,35.10
2019-04-20T16:53:48.018Z,35.70
2019-04-20T16:56:18.965Z,35.80
2019-04-20T16:58:53.132Z,36.40
2019-04-20T17:01:19.294Z,37.80
2019-04-20T17:03:54.572Z,38.30
2019-04-20T17:06:20.478Z,38.30
2019-04-20T17:08:49.567Z,38.60
2019-04-20T17:11:18.418Z,40.10
2019-04-20T17:13:51.204Z,40.90
2019-04-20T17:16:17.866Z,40.90
2019-04-20T17:18:49.963Z,41.50
2019-04-20T17:21:23.497Z,42.10
2019-04-20T17:23:49.620Z,43.30
2019-04-20T17:26:20.922Z,43.30
2019-04-20T17:28:55.026Z,43.10
2019-04-20T17:31:27.162Z,43.70
2019-04-20T17:34:04.668Z,44.00
2019-04-20T17:36:31.782Z,44.80
2019-04-20T17:39:03.727Z,45.10
2019-04-20T17:41:48.982Z,45.00
2019-04-20T17:44:17.299Z,46.00
2019-04-20T17:46:41.325Z,45.60
2019-04-20T17:49:18.187Z,46.50
2019-04-20T17:51:55.177Z,47.00
2019-04-20T17:54:22.391Z,47.50
2019-04-20T17:56:52.131Z,47.50
2019-04-20T17:59:22.300Z,48.20
2019-04-20T18:02:20.510Z,48.80
2019-04-20T18:05:09.935Z,48.80
2019-04-20T18:07:36.669Z,49.60
2019-04-20T18:10:02.997Z,50.40
2019-04-20T18:12:25.783Z,51.10
2019-04-20T18:14:58.075Z,52.30
2019-04-20T18:17:32.337Z,53.10
2019-04-20T18:19:54.993Z,53.50
2019-04-20T18:22:24.093Z,54.00
2019-04-20T18:25:16.380Z,56.20
2019-04-20T18:27:41.387Z,56.80
2019-04-20T18:30:10.670Z,57.70
2019-04-20T18:32:27.625Z,59.20
2019-04-20T18:35:02.623Z,60.30
2019-04-20T18:37:30.975Z,63.60
2019-04-20T18:40:06.213Z,64.80
2019-04-20T18:42:38.414Z,67.50
2019-04-20T18:45:20.064Z,67.90
2019-04-20T18:47:49.590Z,68.20
2019-04-20T18:50:11.811Z,68.60
2019-04-20T18:52:34.013Z,70.20
2019-04-20T18:55:08.428Z,69.30
2019-04-20T18:57:34.976Z,71.60
2019-04-20T19:00:06.375Z,71.80
2019-04-20T19:02:40.960Z,72.30
2019-04-20T19:05:08.692Z,71.50
2019-04-20T19:07:42.517Z,72.60
2019-04-20T19:10:19.555Z,73.00
2019-04-20T19:12:49.645Z,73.50
2019-04-20T19:15:38.567Z,75.60
2019-04-20T19:18:06.998Z,76.50
2019-04-20T19:20:26.907Z,77.30
2019-04-20T19:22:55.784Z,78.20
2019-04-20T19:25:28.132Z,80.00
2019-04-20T19:27:57.478Z,79.80
2019-04-20T19:30:35.319Z,79.00
2019-04-20T19:33:17.571Z,80.00
2019-04-20T19:35:40.857Z,81.20
2019-04-20T19:38:06.620Z,81.30
2019-04-20T19:40:42.186Z,82.00
2019-04-20T19:43:08.470Z,83.70
2019-04-20T19:46:05.517Z,83.20
2019-04-20T19:48:12.406Z,84.30
2019-04-20T19:50:56.052Z,85.50
2019-04-20T19:53:26.575Z,85.70
2019-04-20T19:55:47.791Z,85.10
2019-04-20T19:58:18.798Z,86.70
2019-04-20T20:00:42.860Z,86.20
2019-04-20T20:03:12.263Z,86.40
2019-04-20T20:05:45.036Z,86.90
2019-04-20T20:08:19.208Z,86.70
2019-04-20T20:10:45.506Z,87.10
2019-04-20T20:13:13.292Z,87.30
2019-04-20T20:15:43.718Z,88.30
2019-04-20T20:18:30.640Z,88.20
2019-04-20T20:21:00.611Z,88.30
2019-04-20T20:23:14.341Z,88.20
2019-04-20T20:25:47.564Z,88.50
2019-04-20T20:28:29.821Z,88.30
2019-04-20T20:30:56.983Z,88.90
2019-04-20T20:33:37.364Z,88.60
2019-04-20T20:35:53.637Z,88.40
2019-04-20T20:38:23.087Z,89.30
2019-04-20T20:40:57.820Z,89.20
2019-04-20T20:43:28.140Z,88.60
2019-04-20T20:46:01.089Z,89.10
2019-04-20T20:48:29.984Z,90.50
2019-04-20T20:51:07.716Z,90.70
2019-04-20T20:53:36.342Z,90.60
2019-04-20T20:56:05.341Z,91.50
2019-04-20T20:58:40.183Z,91.40
2019-04-20T21:01:01.111Z,91.10
2019-04-20T21:03:30.214Z,91.40
2019-04-20T21:05:53.641Z,91.30
2019-04-20T21:08:23.883Z,91.30
2019-04-20T21:10:52.952Z,91.40
2019-04-20T21:13:25.933Z,91.80
2019-04-20T21:16:01.316Z,92.10
2019-04-20T21:18:44.823Z,92.40
2019-04-20T21:21:06.518Z,92.40
2019-04-20T21:23:38.015Z,92.20
2019-04-20T21:26:17.005Z,92.90
2019-04-20T21:28:41.965Z,92.80
2019-04-20T21:31:16.285Z,93.00
2019-04-20T21:33:42.887Z,93.00
2019-04-20T21:36:13.600Z,93.30
2019-04-20T21:38:44.589Z,92.90
2019-04-20T21:41:16.088Z,93.20
2019-04-20T21:43:44.678Z,93.20
2019-04-20T21:46:16.532Z,94.00
2019-04-20T21:49:00.674Z,94.00
2019-04-20T21:51:30.538Z,93.70
2019-04-20T21:53:48.213Z,94.00
2019-04-20T21:56:17.695Z,93.70
2019-04-20T21:58:50.446Z,94.10
2019-04-20T22:01:27.259Z,94.10
2019-04-20T22:03:50.154Z,94.40
2019-04-20T22:06:20.298Z,94.40
2019-04-20T22:08:54.522Z,94.60
2019-04-20T22:11:20.057Z,94.30
2019-04-20T22:13:50.822Z,94.30
2019-04-20T22:16:21.919Z,94.10
2019-04-20T22:18:58.269Z,94.30
2019-04-20T22:21:27.789Z,94.40
2019-04-20T22:24:04.231Z,94.30
2019-04-20T22:26:30.701Z,94.30
2019-04-20T22:28:52.292Z,94.60
2019-04-20T22:31:22.257Z,94.70
2019-04-20T22:33:52.349Z,95.10
2019-04-20T22:36:24.825Z,95.60
2019-04-20T22:39:00.261Z,95.20
2019-04-20T22:41:30.166Z,95.50
2019-04-20T22:44:01.811Z,95.70
2019-04-20T22:46:33.740Z,95.70
2019-04-20T22:49:17.395Z,95.90
2019-04-20T22:51:44.014Z,95.90
2019-04-20T22:54:18.810Z,95.90
2019-04-20T22:56:47.023Z,96.10
2019-04-20T22:59:11.006Z,96.00
2019-04-20T23:01:41.867Z,96.10
2019-04-20T23:04:04.343Z,96.90
2019-04-20T23:06:38.632Z,97.00
2019-04-20T23:09:10.227Z,96.60
2019-04-20T23:11:37.609Z,96.40
2019-04-20T23:14:06.685Z,96.50
2019-04-20T23:16:43.286Z,96.50
2019-04-20T23:19:06.131Z,96.60
2019-04-20T23:21:34.986Z,97.00
2019-04-20T23:24:09.239Z,97.10
2019-04-20T23:26:39.773Z,97.70
2019-04-20T23:29:05.016Z,97.10
2019-04-20T23:31:34.622Z,97.30
2019-04-20T23:34:12.846Z,97.20
2019-04-20T23:36:39.055Z,96.70
2019-04-20T23:39:06.691Z,96.70
2019-04-20T23:41:35.752Z,97.20
2019-04-20T23:44:10.746Z,97.80
2019-04-20T23:46:39.115Z,97.90
2019-04-20T23:49:24.083Z,98.50
2019-04-20T23:52:11.855Z,98.10
2019-04-20T23:54:25.395Z,97.90
2019-04-20T23:56:50.351Z,98.80
2019-04-20T23:59:25.326Z,98.70
